sensor_id;sensor_type;location;lat;lon;timestamp;P1;durP1;ratioP1;P2;durP2;ratioP2
21800;SDS011;11062;51.164;16.924;2024-02-14T00:18:15;43.03;;;19.35;;
21800;SDS011;11062;51.164;16.924;2024-02-14T00:20:50;41.38;;;18.75;;
21800;SDS011;11062;51.164;16.924;2024-02-14T00:23:25;37.15;;;19.20;;
21800;SDS011;11062;51.164;16.924;2024-02-14T00:57:27;42.92;;;20.92;;
21800;SDS011;11062;51.164;16.924;2024-02-14T02:34:21;52.70;;;26.73;;
21800;SDS011;11062;51.164;16.924;2024-02-14T02:36:49;57.22;;;25.38;;
21800;SDS011;11062;51.164;16.924;2024-02-14T02:39:20;53.08;;;26.55;;
21800;SDS011;11062;51.164;16.924;2024-02-14T02:41:52;59.95;;;24.67;;
21800;SDS011;11062;51.164;16.924;2024-02-14T02:45:22;53.83;;;26.08;;
21800;SDS011;11062;51.164;16.924;2024-02-14T02:52:29;48.47;;;26.63;;
21800;SDS011;11062;51.164;16.924;2024-02-14T02:55:16;58.85;;;26.83;;
21800;SDS011;11062;51.164;16.924;2024-02-14T02:57:48;66.43;;;29.90;;
21800;SDS011;11062;51.164;16.924;2024-02-14T03:00:20;60.47;;;29.25;;
21800;SDS011;11062;51.164;16.924;2024-02-14T03:02:49;67.20;;;28.55;;
21800;SDS011;11062;51.164;16.924;2024-02-14T04:37:19;68.57;;;33.35;;
21800;SDS011;11062;51.164;16.924;2024-02-14T04:39:47;74.20;;;34.08;;
21800;SDS011;11062;51.164;16.924;2024-02-14T04:58:17;65.72;;;33.17;;
21800;SDS011;11062;51.164;16.924;2024-02-14T06:48:45;74.75;;;36.30;;
21800;SDS011;11062;51.164;16.924;2024-02-14T06:51:40;79.22;;;36.78;;
21800;SDS011;11062;51.164;16.924;2024-02-14T06:54:11;79.25;;;34.72;;
21800;SDS011;11062;51.164;16.924;2024-02-14T06:56:43;78.97;;;36.58;;
21800;SDS011;11062;51.164;16.924;2024-02-14T06:59:10;73.68;;;35.58;;
21800;SDS011;11062;51.164;16.924;2024-02-14T07:01:42;71.63;;;35.45;;
21800;SDS011;11062;51.164;16.924;2024-02-14T07:04:08;81.05;;;35.83;;
21800;SDS011;11062;51.164;16.924;2024-02-14T07:06:37;76.00;;;36.78;;
21800;SDS011;11062;51.164;16.924;2024-02-14T07:09:06;72.63;;;36.50;;
21800;SDS011;11062;51.164;16.924;2024-02-14T07:11:34;73.15;;;34.47;;
21800;SDS011;11062;51.164;16.924;2024-02-14T07:14:06;75.72;;;34.60;;
21800;SDS011;11062;51.164;16.924;2024-02-14T07:16:37;72.88;;;33.72;;
21800;SDS011;11062;51.164;16.924;2024-02-14T07:19:03;70.57;;;32.53;;
21800;SDS011;11062;51.164;16.924;2024-02-14T07:21:32;65.72;;;33.67;;
21800;SDS011;11062;51.164;16.924;2024-02-14T07:24:06;67.82;;;33.22;;
21800;SDS011;11062;51.164;16.924;2024-02-14T07:26:35;66.55;;;32.58;;
21800;SDS011;11062;51.164;16.924;2024-02-14T07:29:19;72.68;;;34.53;;
21800;SDS011;11062;51.164;16.924;2024-02-14T07:31:55;76.53;;;33.75;;
21800;SDS011;11062;51.164;16.924;2024-02-14T07:35:05;62.92;;;32.25;;
21800;SDS011;11062;51.164;16.924;2024-02-14T07:37:51;67.05;;;33.25;;
21800;SDS011;11062;51.164;16.924;2024-02-14T07:40:59;59.15;;;32.15;;
21800;SDS011;11062;51.164;16.924;2024-02-14T07:44:28;73.10;;;34.05;;
21800;SDS011;11062;51.164;16.924;2024-02-14T07:47:20;68.20;;;32.13;;
21800;SDS011;11062;51.164;16.924;2024-02-14T07:49:47;61.25;;;31.88;;
21800;SDS011;11062;51.164;16.924;2024-02-14T07:52:25;55.95;;;30.92;;
21800;SDS011;11062;51.164;16.924;2024-02-14T07:54:56;59.58;;;30.58;;
21800;SDS011;11062;51.164;16.924;2024-02-14T07:57:26;62.17;;;31.50;;
21800;SDS011;11062;51.164;16.924;2024-02-14T08:00:01;62.33;;;33.33;;
21800;SDS011;11062;51.164;16.924;2024-02-14T08:02:28;62.53;;;32.28;;
21800;SDS011;11062;51.164;16.924;2024-02-14T08:04:54;72.80;;;33.30;;
21800;SDS011;11062;51.164;16.924;2024-02-14T08:07:27;64.57;;;31.67;;
21800;SDS011;11062;51.164;16.924;2024-02-14T08:10:04;64.63;;;31.58;;
21800;SDS011;11062;51.164;16.924;2024-02-14T08:12:38;47.03;;;22.10;;
21800;SDS011;11062;51.164;16.924;2024-02-14T08:15:08;46.55;;;21.98;;
21800;SDS011;11062;51.164;16.924;2024-02-14T08:17:36;34.42;;;18.30;;
21800;SDS011;11062;51.164;16.924;2024-02-14T08:23:37;27.17;;;14.77;;
21800;SDS011;11062;51.164;16.924;2024-02-14T08:27:13;30.42;;;15.77;;
21800;SDS011;11062;51.164;16.924;2024-02-14T08:30:15;31.10;;;15.45;;
21800;SDS011;11062;51.164;16.924;2024-02-14T08:33:52;26.23;;;14.90;;
21800;SDS011;11062;51.164;16.924;2024-02-14T08:37:02;29.95;;;14.57;;
21800;SDS011;11062;51.164;16.924;2024-02-14T08:39:44;35.83;;;14.40;;
21800;SDS011;11062;51.164;16.924;2024-02-14T08:42:34;30.85;;;14.80;;
21800;SDS011;11062;51.164;16.924;2024-02-14T08:45:32;31.10;;;14.95;;
21800;SDS011;11062;51.164;16.924;2024-02-14T08:48:14;25.38;;;14.07;;
21800;SDS011;11062;51.164;16.924;2024-02-14T08:50:47;27.30;;;14.07;;
21800;SDS011;11062;51.164;16.924;2024-02-14T08:53:41;28.58;;;14.70;;
21800;SDS011;11062;51.164;16.924;2024-02-14T08:56:44;25.80;;;15.25;;
21800;SDS011;11062;51.164;16.924;2024-02-14T08:59:16;28.50;;;14.95;;
21800;SDS011;11062;51.164;16.924;2024-02-14T09:02:07;25.30;;;13.27;;
21800;SDS011;11062;51.164;16.924;2024-02-14T09:05:00;21.25;;;12.88;;
21800;SDS011;11062;51.164;16.924;2024-02-14T09:07:56;26.42;;;13.48;;
21800;SDS011;11062;51.164;16.924;2024-02-14T09:11:00;28.50;;;12.18;;
21800;SDS011;11062;51.164;16.924;2024-02-14T09:14:31;21.95;;;11.90;;
21800;SDS011;11062;51.164;16.924;2024-02-14T09:18:17;20.10;;;11.75;;
21800;SDS011;11062;51.164;16.924;2024-02-14T09:21:41;22.00;;;11.27;;
21800;SDS011;11062;51.164;16.924;2024-02-14T09:24:08;27.50;;;12.52;;
21800;SDS011;11062;51.164;16.924;2024-02-14T09:26:36;24.52;;;10.88;;
21800;SDS011;11062;51.164;16.924;2024-02-14T09:29:06;29.25;;;11.30;;
21800;SDS011;11062;51.164;16.924;2024-02-14T09:31:41;25.85;;;11.30;;
21800;SDS011;11062;51.164;16.924;2024-02-14T09:34:07;23.70;;;10.35;;
21800;SDS011;11062;51.164;16.924;2024-02-14T09:36:34;18.13;;;10.40;;
21800;SDS011;11062;51.164;16.924;2024-02-14T09:39:00;22.33;;;10.32;;
21800;SDS011;11062;51.164;16.924;2024-02-14T09:41:31;16.38;;;10.45;;
21800;SDS011;11062;51.164;16.924;2024-02-14T09:44:02;20.25;;;9.30;;
21800;SDS011;11062;51.164;16.924;2024-02-14T09:46:28;16.52;;;9.73;;
21800;SDS011;11062;51.164;16.924;2024-02-14T09:48:58;14.13;;;9.07;;
21800;SDS011;11062;51.164;16.924;2024-02-14T09:51:24;18.23;;;9.93;;
21800;SDS011;11062;51.164;16.924;2024-02-14T09:53:51;14.55;;;9.15;;
21800;SDS011;11062;51.164;16.924;2024-02-14T09:56:20;16.10;;;9.88;;
21800;SDS011;11062;51.164;16.924;2024-02-14T09:58:50;16.45;;;9.45;;
21800;SDS011;11062;51.164;16.924;2024-02-14T10:01:25;20.25;;;9.48;;
21800;SDS011;11062;51.164;16.924;2024-02-14T10:03:54;14.60;;;8.73;;
21800;SDS011;11062;51.164;16.924;2024-02-14T10:06:21;11.52;;;7.65;;
21800;SDS011;11062;51.164;16.924;2024-02-14T10:08:50;13.27;;;8.63;;
21800;SDS011;11062;51.164;16.924;2024-02-14T10:11:18;23.13;;;10.23;;
21800;SDS011;11062;51.164;16.924;2024-02-14T10:13:48;16.85;;;9.02;;
21800;SDS011;11062;51.164;16.924;2024-02-14T10:16:16;11.40;;;7.18;;
21800;SDS011;11062;51.164;16.924;2024-02-14T10:18:44;11.98;;;7.20;;
21800;SDS011;11062;51.164;16.924;2024-02-14T10:21:17;15.73;;;9.18;;
21800;SDS011;11062;51.164;16.924;2024-02-14T10:23:44;13.63;;;9.48;;
21800;SDS011;11062;51.164;16.924;2024-02-14T10:26:12;29.90;;;14.25;;
21800;SDS011;11062;51.164;16.924;2024-02-14T10:28:47;15.77;;;7.68;;
21800;SDS011;11062;51.164;16.924;2024-02-14T10:31:16;36.50;;;17.55;;
21800;SDS011;11062;51.164;16.924;2024-02-14T10:33:42;20.88;;;12.45;;
